Elizabeth City Cg Air Station Regional Airport
KECG : now visible

Airfield :











YOU CAN JOIN US ON...

 
LOGIN :

Register | Disclaimer

   EN    FR    IT 

 









Legend :    VFR   Marginal VFR   IFR   Intensive IFR   Very Intensive IFR
Visi :
Ceiling :
>= 8 km
>= 3000ft
5 to 8 km
1000 to 3000 ft
1500m to 5 km
500 to 1000 ft
800 to 1500m
200 to 500 ft
< 800m
< 200 ft
Symbols :   Thunderstorms  Fog  Heavy snow  Heavy precipitations  Wind > 20 kt






- Airport Elevation : 12 ft


KECG - Elizabeth City Cg Air Station Regional

CURRENT METAR :
  • 041601Z 23010G21KT 10SM SCT025 29/23 A2993 RMK AO2 T02940228

EXPIRED METARs :
  • 041554Z 22016KT 10SM BKN025 29/23 A2993 RMK AO2 SLP136 T02890228
  • 041542Z 22015KT 10SM BKN026 29/23 A2993 RMK AO2 T02940228
  • 041454Z 25016KT 10SM SCT024 28/22 A2992 RMK AO2 PK WND 25029/1430 SLP131 T02780222 51045
  • 041443Z 26017G24KT 10SM SCT026 28/22 A2992 RMK AO2 PK WND 25029/1430 T02830222
  • 041354Z 24015G27KT 10SM BKN023 BKN030 26/22 A2990 RMK AO2 PK WND 24032/1309 SLP123 T02610222 $

TAF KECG
Valid from the 04 at 16:00 until the 05 at 12:00 UTC


041549Z 0416/0512 23014G22KT P6SM BKN030
FM041900 24010KT P6SM SCT040 SCT250
FM042200 21007KT P6SM SCT250
KZDC FIR / North America



MET'MAP, your aeronautical weather chart ! - Copyright ORBIFLY December 2007 - Disclaimer

ORBIFLY MET'MAP TEAM :

Programming & Development : Alexandra Zaïnal
Concept & original design : Baudouin d'Aumeries
Assistance for programming : Marc-Olivier Méhu
Technical & hardware support : Manuel Goepfert

Contact : metmap@orbifly.com




SOURCES & CREDITS :

   NOAA       Earth
Advisory